createdAt,value
2018-12-04T00:00:56.002Z,96.70
2018-12-04T00:03:24.379Z,96.70
2018-12-04T00:05:54.985Z,96.70
2018-12-04T00:08:23.949Z,96.70
2018-12-04T00:10:52.498Z,97.00
2018-12-04T00:13:20.879Z,96.60
2018-12-04T00:15:49.304Z,96.70
2018-12-04T00:18:17.858Z,96.70
2018-12-04T00:20:46.325Z,96.70
2018-12-04T00:23:14.754Z,96.70
2018-12-04T00:25:43.206Z,96.70
2018-12-04T00:28:11.573Z,96.70
2018-12-04T00:30:40.135Z,96.80
2018-12-04T00:33:11.404Z,96.80
2018-12-04T00:35:39.798Z,97.10
2018-12-04T00:38:08.306Z,96.80
2018-12-04T00:40:38.101Z,96.80
2018-12-04T00:43:08.063Z,96.80
2018-12-04T00:45:37.458Z,96.90
2018-12-04T00:48:05.894Z,96.80
2018-12-04T00:50:34.289Z,96.80
2018-12-04T00:53:02.729Z,96.90
2018-12-04T00:55:39.383Z,96.90
2018-12-04T00:58:08.196Z,96.90
2018-12-04T01:00:36.802Z,96.90
2018-12-04T01:03:06.765Z,96.90
2018-12-04T01:05:35.138Z,96.90
2018-12-04T01:08:04.559Z,97.00
2018-12-04T01:10:32.922Z,96.90
2018-12-04T01:13:01.293Z,97.00
2018-12-04T01:15:29.739Z,97.00
2018-12-04T01:17:58.180Z,97.00
2018-12-04T01:20:27.751Z,97.00
2018-12-04T01:22:56.286Z,97.00
2018-12-04T01:25:24.670Z,96.90
2018-12-04T01:27:53.130Z,97.20
2018-12-04T01:30:21.913Z,96.80
2018-12-04T01:32:50.297Z,96.90
2018-12-04T01:35:19.761Z,96.90
2018-12-04T01:37:48.165Z,96.90
2018-12-04T01:40:19.179Z,96.80
2018-12-04T01:42:48.317Z,96.70
2018-12-04T01:45:18.084Z,96.70
2018-12-04T01:47:46.478Z,96.60
2018-12-04T01:50:14.958Z,96.50
2018-12-04T01:52:43.470Z,96.60
2018-12-04T01:55:11.985Z,96.60
2018-12-04T01:57:40.538Z,96.60
2018-12-04T02:00:10.205Z,96.60
2018-12-04T02:02:38.689Z,96.60
2018-12-04T02:05:07.138Z,96.50
2018-12-04T02:07:35.670Z,96.40
2018-12-04T02:10:02.369Z,96.40
2018-12-04T02:12:31.241Z,96.50
2018-12-04T02:14:59.687Z,96.60
2018-12-04T02:17:28.079Z,96.60
2018-12-04T02:19:57.825Z,96.60
2018-12-04T02:22:26.284Z,96.60
2018-12-04T02:24:54.650Z,96.60
2018-12-04T02:27:23.802Z,96.50
2018-12-04T02:29:52.189Z,96.50
2018-12-04T02:32:20.574Z,96.50
2018-12-04T02:34:51.480Z,96.60
2018-12-04T02:37:19.873Z,96.60
2018-12-04T02:39:50.430Z,96.60
2018-12-04T02:42:26.173Z,96.50
2018-12-04T02:44:56.755Z,96.50
2018-12-04T02:47:25.254Z,96.50
2018-12-04T02:49:53.624Z,96.40
2018-12-04T02:52:22.093Z,96.50
2018-12-04T02:54:50.610Z,96.40
2018-12-04T02:57:20.353Z,96.40
2018-12-04T02:59:48.725Z,96.40
2018-12-04T03:02:17.109Z,96.40
2018-12-04T03:04:45.526Z,96.40
2018-12-04T03:07:13.911Z,96.50
2018-12-04T03:09:42.461Z,96.50
2018-12-04T03:12:11.001Z,96.50
2018-12-04T03:14:39.366Z,96.50
2018-12-04T03:17:07.785Z,96.50
2018-12-04T03:19:37.670Z,96.50
2018-12-04T03:22:06.071Z,96.50
2018-12-04T03:24:34.457Z,96.50
2018-12-04T03:27:03.674Z,96.50
2018-12-04T03:29:32.030Z,96.40
2018-12-04T03:32:00.400Z,96.40
2018-12-04T03:34:29.787Z,96.50
2018-12-04T03:36:58.186Z,96.60
2018-12-04T03:39:26.577Z,96.60
2018-12-04T03:41:56.006Z,96.60
2018-12-04T03:44:25.633Z,96.60
2018-12-04T03:46:55.317Z,96.60
2018-12-04T03:49:23.693Z,96.60
2018-12-04T03:51:52.158Z,96.60
2018-12-04T03:54:21.981Z,96.70
2018-12-04T03:56:50.595Z,96.70
2018-12-04T03:59:18.969Z,96.60
2018-12-04T04:01:47.350Z,96.60
2018-12-04T04:04:15.719Z,96.50
2018-12-04T04:06:44.214Z,96.50
2018-12-04T04:09:12.593Z,96.50
2018-12-04T04:11:41.085Z,96.60
2018-12-04T04:14:09.458Z,96.30
2018-12-04T04:16:37.855Z,96.20
2018-12-04T04:19:07.195Z,96.50
2018-12-04T04:21:35.559Z,96.70
2018-12-04T04:24:05.263Z,96.70
2018-12-04T04:26:33.673Z,96.60
2018-12-04T04:29:02.102Z,96.50
2018-12-04T04:31:30.508Z,96.50
2018-12-04T04:34:00.293Z,96.40
2018-12-04T04:36:28.658Z,96.50
2018-12-04T04:38:57.039Z,96.40
2018-12-04T04:41:26.519Z,96.40
2018-12-04T04:43:56.240Z,96.40
2018-12-04T04:46:25.890Z,96.40
2018-12-04T04:48:54.258Z,96.30
2018-12-04T04:51:22.758Z,96.30
2018-12-04T04:53:52.549Z,96.40
2018-12-04T04:56:20.930Z,96.40
2018-12-04T04:58:49.304Z,96.40
2018-12-04T05:01:17.697Z,96.40
2018-12-04T05:03:46.197Z,96.40
2018-12-04T05:06:14.807Z,96.40
2018-12-04T05:08:43.194Z,96.40
2018-12-04T05:11:11.565Z,96.40
2018-12-04T05:13:40.055Z,96.40
2018-12-04T05:16:08.445Z,96.30
2018-12-04T05:18:37.151Z,96.40
2018-12-04T05:21:07.477Z,96.30
2018-12-04T05:23:36.666Z,96.40
2018-12-04T05:26:05.098Z,96.30
2018-12-04T05:28:33.473Z,96.40
2018-12-04T05:31:01.931Z,96.40
2018-12-04T05:33:31.325Z,96.40
2018-12-04T05:35:59.691Z,96.40
2018-12-04T05:38:28.088Z,96.40
2018-12-04T05:40:57.290Z,96.30
2018-12-04T05:43:27.045Z,96.30
2018-12-04T05:45:56.739Z,96.30
2018-12-04T05:48:25.115Z,96.40
2018-12-04T05:50:54.549Z,96.40
2018-12-04T05:53:32.346Z,96.30
2018-12-04T05:56:00.747Z,96.40
2018-12-04T05:58:29.097Z,96.30
2018-12-04T06:00:57.634Z,96.20
2018-12-04T06:03:26.013Z,96.30
2018-12-04T06:05:54.390Z,96.10
2018-12-04T06:08:22.836Z,96.00
2018-12-04T06:10:52.298Z,95.90
2018-12-04T06:13:20.702Z,96.00
2018-12-04T06:15:49.442Z,96.00
2018-12-04T06:18:18.975Z,96.10
2018-12-04T06:20:47.917Z,95.90
2018-12-04T06:23:16.294Z,95.90
2018-12-04T06:25:44.692Z,95.90
2018-12-04T06:28:13.074Z,95.90
2018-12-04T06:30:41.470Z,95.90
2018-12-04T06:33:10.826Z,96.00
2018-12-04T06:35:39.186Z,95.90
2018-12-04T06:38:07.539Z,95.90
2018-12-04T06:40:36.920Z,95.90
2018-12-04T06:43:09.261Z,96.20
2018-12-04T06:45:52.029Z,95.70
2018-12-04T06:48:24.382Z,95.20
2018-12-04T06:51:05.829Z,95.40
2018-12-04T06:53:46.824Z,95.10
2018-12-04T06:56:19.152Z,95.00
2018-12-04T06:59:00.187Z,94.60
2018-12-04T07:01:31.845Z,94.80
2018-12-04T07:04:13.373Z,94.80
2018-12-04T07:06:45.069Z,94.90
2018-12-04T07:09:27.178Z,94.80
2018-12-04T07:12:08.494Z,94.90
2018-12-04T07:14:50.516Z,95.00
2018-12-04T07:17:31.515Z,95.10
2018-12-04T07:20:13.703Z,95.10
2018-12-04T07:22:54.553Z,95.20
2018-12-04T07:25:35.594Z,95.20
2018-12-04T07:28:07.088Z,95.20
2018-12-04T07:30:48.626Z,95.30
2018-12-04T07:33:31.240Z,95.20
2018-12-04T07:36:02.646Z,95.20
2018-12-04T07:38:44.067Z,95.20
2018-12-04T07:41:16.540Z,95.30
2018-12-04T07:43:59.137Z,95.40
2018-12-04T07:46:41.431Z,95.20
2018-12-04T07:49:13.655Z,95.20
2018-12-04T07:51:45.814Z,95.20
2018-12-04T07:54:27.079Z,95.30
2018-12-04T07:57:35.251Z,95.20
2018-12-04T08:00:16.770Z,95.30
2018-12-04T08:02:48.133Z,95.30
2018-12-04T08:05:19.978Z,95.40
2018-12-04T08:07:48.351Z,95.60
2018-12-04T08:10:17.018Z,95.30
2018-12-04T08:12:59.027Z,95.30
2018-12-04T08:15:31.198Z,95.30
2018-12-04T08:18:13.380Z,95.30
2018-12-04T08:20:55.378Z,95.30
2018-12-04T08:23:25.004Z,95.30
2018-12-04T08:25:57.007Z,95.30
2018-12-04T08:28:28.992Z,95.30
2018-12-04T08:30:58.301Z,95.20
2018-12-04T08:33:41.425Z,95.30
2018-12-04T08:36:22.411Z,95.30
2018-12-04T08:39:21.639Z,95.20
2018-12-04T08:42:04.443Z,95.20
2018-12-04T08:44:46.321Z,95.10
2018-12-04T08:47:18.999Z,95.10
2018-12-04T08:49:47.390Z,94.90
2018-12-04T08:52:15.850Z,94.80
2018-12-04T08:54:49.770Z,94.80
2018-12-04T08:57:30.954Z,94.80
2018-12-04T08:59:59.383Z,94.70
2018-12-04T09:02:40.550Z,94.70
2018-12-04T09:05:09.325Z,94.80
2018-12-04T09:07:39.002Z,94.60
2018-12-04T09:10:07.411Z,94.70
2018-12-04T09:12:35.792Z,94.70
2018-12-04T09:15:04.225Z,94.50
2018-12-04T09:17:32.607Z,94.60
2018-12-04T09:20:02.301Z,94.70
2018-12-04T09:22:30.731Z,94.50
2018-12-04T09:24:59.198Z,94.40
2018-12-04T09:27:27.776Z,94.40
2018-12-04T09:29:56.464Z,94.40
2018-12-04T09:32:25.045Z,94.50
2018-12-04T09:34:53.891Z,94.50
2018-12-04T09:37:23.805Z,94.60
2018-12-04T09:39:53.242Z,94.40
2018-12-04T09:42:23.095Z,94.50
2018-12-04T09:44:52.726Z,94.60
2018-12-04T09:47:21.119Z,94.50
2018-12-04T09:49:49.482Z,94.60
2018-12-04T09:52:17.874Z,94.60
2018-12-04T09:54:46.242Z,94.50
2018-12-04T09:57:14.720Z,94.50
2018-12-04T09:59:43.817Z,94.40
2018-12-04T10:02:12.265Z,94.30
2018-12-04T10:04:40.772Z,94.10
2018-12-04T10:07:09.210Z,94.30
2018-12-04T10:09:37.590Z,94.10
2018-12-04T10:12:06.046Z,94.20
2018-12-04T10:14:34.560Z,94.10
2018-12-04T10:17:06.757Z,94.10
2018-12-04T10:19:39.167Z,96.30
2018-12-04T10:22:20.158Z,96.60
2018-12-04T10:25:01.167Z,96.60
2018-12-04T10:27:33.000Z,96.80
2018-12-04T10:30:07.812Z,96.30
2018-12-04T10:32:51.325Z,96.50
2018-12-04T10:35:24.683Z,96.40
2018-12-04T10:37:56.630Z,96.50
2018-12-04T10:40:30.662Z,96.70
2018-12-04T10:43:12.407Z,96.50
2018-12-04T10:45:45.122Z,96.80
2018-12-04T10:48:17.459Z,96.80
2018-12-04T10:50:50.346Z,97.00
2018-12-04T10:53:22.086Z,97.00
2018-12-04T10:55:54.282Z,97.10
2018-12-04T10:58:26.366Z,97.30
2018-12-04T11:01:07.050Z,97.30
2018-12-04T11:03:48.087Z,97.40
2018-12-04T11:06:19.729Z,97.30
2018-12-04T11:08:52.832Z,97.00
2018-12-04T11:11:24.515Z,97.00
2018-12-04T11:13:56.666Z,96.80
2018-12-04T11:16:37.806Z,96.50
2018-12-04T11:19:10.980Z,96.60
2018-12-04T11:21:43.193Z,96.30
2018-12-04T11:24:15.466Z,96.60
2018-12-04T11:26:57.004Z,96.70
2018-12-04T11:29:38.002Z,96.40
2018-12-04T11:32:20.459Z,96.30
2018-12-04T11:34:53.171Z,96.70
2018-12-04T11:37:26.429Z,96.90
2018-12-04T11:39:59.246Z,96.80
2018-12-04T11:42:42.271Z,96.90
2018-12-04T11:45:15.443Z,96.60
2018-12-04T11:47:47.683Z,96.60
2018-12-04T11:50:19.937Z,96.60
2018-12-04T11:52:52.229Z,96.40
2018-12-04T11:55:24.732Z,96.40
2018-12-04T11:57:56.824Z,96.40
2018-12-04T12:00:38.410Z,96.30
2018-12-04T12:03:11.639Z,96.30
2018-12-04T12:05:43.637Z,96.10
2018-12-04T12:08:25.209Z,96.20
2018-12-04T12:11:06.362Z,96.20
2018-12-04T12:13:38.067Z,96.30
2018-12-04T12:16:10.029Z,96.10
2018-12-04T12:18:42.610Z,96.10
2018-12-04T12:21:23.897Z,96.00
2018-12-04T12:24:04.673Z,96.00
2018-12-04T12:26:45.518Z,95.90
2018-12-04T12:29:27.576Z,95.90
2018-12-04T12:32:08.572Z,95.90
2018-12-04T12:34:50.191Z,96.00
2018-12-04T12:37:22.214Z,95.90
2018-12-04T12:39:55.041Z,96.00
2018-12-04T12:42:37.358Z,95.80
2018-12-04T12:45:11.359Z,95.80
2018-12-04T12:47:52.493Z,95.70
2018-12-04T12:50:22.168Z,95.80
2018-12-04T12:52:52.622Z,95.80
2018-12-04T12:55:21.003Z,95.60
2018-12-04T12:57:49.457Z,95.50
2018-12-04T13:00:21.986Z,95.60
2018-12-04T13:02:54.054Z,95.50
2018-12-04T13:05:37.361Z,95.50
2018-12-04T13:08:18.415Z,95.80
2018-12-04T13:10:50.422Z,95.60
2018-12-04T13:13:22.311Z,95.50
2018-12-04T13:16:03.626Z,95.50
2018-12-04T13:18:35.750Z,95.40
2018-12-04T13:21:06.190Z,95.30
2018-12-04T13:23:47.432Z,95.20
2018-12-04T13:26:29.245Z,95.30
2018-12-04T13:29:24.158Z,95.20
2018-12-04T13:32:05.311Z,95.20
2018-12-04T13:34:47.589Z,95.10
2018-12-04T13:37:56.054Z,95.00
2018-12-04T13:40:28.727Z,95.00
2018-12-04T13:43:01.666Z,95.00
2018-12-04T13:45:43.308Z,95.00
2018-12-04T13:48:24.693Z,95.00
2018-12-04T13:51:05.809Z,95.00
2018-12-04T13:53:46.679Z,95.00
2018-12-04T13:56:27.820Z,94.90
2018-12-04T13:59:08.632Z,94.90
2018-12-04T14:01:41.599Z,95.00
2018-12-04T14:04:16.990Z,95.10
2018-12-04T14:06:48.561Z,95.10
2018-12-04T14:09:31.174Z,95.10
2018-12-04T14:12:12.262Z,95.10
2018-12-04T14:14:43.746Z,95.10
2018-12-04T14:17:17.110Z,94.90
2018-12-04T14:19:49.947Z,94.90
2018-12-04T14:22:31.335Z,94.90
2018-12-04T14:25:03.352Z,94.90
2018-12-04T14:27:35.446Z,94.90
2018-12-04T14:30:10.584Z,95.00
2018-12-04T14:32:42.789Z,94.80
2018-12-04T14:35:11.863Z,94.80
2018-12-04T14:37:43.625Z,98.70
2018-12-04T14:40:13.087Z,99.10
2018-12-04T14:45:24.657Z,99.90
2018-12-04T14:47:56.196Z,99.90
2018-12-04T14:50:24.741Z,99.90
2018-12-04T14:52:56.387Z,99.90
2018-12-04T14:55:24.989Z,99.90
2018-12-04T14:57:53.454Z,99.90
2018-12-04T15:00:21.880Z,99.90
2018-12-04T15:02:50.358Z,99.90
2018-12-04T15:05:18.994Z,99.90
2018-12-04T15:07:47.700Z,99.90
2018-12-04T15:10:16.118Z,99.90
2018-12-04T15:12:44.553Z,99.60
2018-12-04T15:15:13.088Z,99.50
2018-12-04T15:17:41.613Z,99.30
2018-12-04T15:20:11.968Z,99.10
2018-12-04T15:22:40.544Z,99.00
2018-12-04T15:25:08.987Z,98.90
2018-12-04T15:27:37.466Z,99.10
2018-12-04T15:30:06.060Z,98.70
2018-12-04T15:32:34.688Z,98.60
2018-12-04T15:35:04.450Z,98.50
2018-12-04T15:37:32.843Z,98.50
2018-12-04T15:40:02.701Z,98.40
2018-12-04T15:42:32.674Z,98.40
2018-12-04T15:45:02.745Z,98.90
2018-12-04T15:47:31.198Z,98.30
2018-12-04T15:50:00.621Z,98.10
2018-12-04T15:52:29.134Z,98.10
2018-12-04T15:54:57.507Z,98.10
2018-12-04T15:57:26.003Z,97.90
2018-12-04T15:59:54.423Z,97.80
2018-12-04T16:02:23.121Z,97.90
2018-12-04T16:04:51.551Z,97.80
2018-12-04T16:07:19.945Z,97.80
2018-12-04T16:09:48.362Z,97.70
2018-12-04T16:12:16.899Z,97.70
2018-12-04T16:14:45.699Z,97.60
2018-12-04T16:17:15.326Z,97.60
2018-12-04T16:19:46.021Z,97.50
2018-12-04T16:22:14.416Z,97.60
2018-12-04T16:24:42.794Z,97.50
2018-12-04T16:27:11.178Z,97.50
2018-12-04T16:29:39.650Z,97.50
2018-12-04T16:32:08.161Z,97.50
2018-12-04T16:34:37.932Z,97.50
2018-12-04T16:37:06.363Z,97.40
2018-12-04T16:39:36.431Z,97.50
2018-12-04T16:42:04.831Z,97.40
2018-12-04T16:44:34.509Z,97.40
2018-12-04T16:47:06.616Z,97.40
2018-12-04T16:49:35.050Z,97.30
2018-12-04T16:52:03.769Z,97.50
2018-12-04T16:54:32.150Z,97.40
2018-12-04T16:57:03.077Z,97.10
2018-12-04T16:59:32.138Z,96.40
2018-12-04T17:02:00.504Z,95.80
2018-12-04T17:04:29.332Z,95.50
2018-12-04T17:06:57.806Z,94.90
2018-12-04T17:09:26.787Z,94.50
2018-12-04T17:11:55.797Z,94.10
2018-12-04T17:14:24.199Z,93.60
2018-12-04T17:16:52.617Z,93.50
2018-12-04T17:19:21.805Z,93.30
2018-12-04T17:21:50.289Z,93.10
2018-12-04T17:24:18.664Z,92.90
2018-12-04T17:26:47.102Z,92.60
2018-12-04T17:29:15.639Z,92.40
2018-12-04T17:31:47.349Z,92.10
2018-12-04T17:34:16.210Z,92.30
2018-12-04T17:36:44.869Z,92.20
2018-12-04T17:39:13.242Z,92.10
2018-12-04T17:41:43.526Z,91.90
2018-12-04T17:44:12.631Z,91.90
2018-12-04T17:46:42.417Z,91.90
2018-12-04T17:49:10.846Z,91.70
2018-12-04T17:51:40.517Z,91.50
2018-12-04T17:54:08.878Z,91.40
2018-12-04T17:56:37.300Z,91.50
2018-12-04T17:59:05.742Z,91.40
2018-12-04T18:01:34.207Z,91.30
2018-12-04T18:04:02.809Z,91.20
2018-12-04T18:06:31.236Z,91.20
2018-12-04T18:08:59.682Z,91.50
2018-12-04T18:11:28.735Z,91.00
2018-12-04T18:13:57.104Z,90.90
2018-12-04T18:16:25.473Z,90.80
2018-12-04T18:18:53.903Z,90.90
2018-12-04T18:21:24.503Z,90.90
2018-12-04T18:23:54.078Z,90.90
2018-12-04T18:26:22.510Z,90.80
2018-12-04T18:28:50.888Z,90.80
2018-12-04T18:31:19.315Z,90.90
2018-12-04T18:33:48.673Z,90.90
2018-12-04T18:36:17.242Z,90.80
2018-12-04T18:38:46.490Z,90.90
2018-12-04T18:41:15.695Z,90.90
2018-12-04T18:43:44.642Z,91.00
2018-12-04T18:46:13.865Z,90.80
2018-12-04T18:48:42.342Z,90.80
2018-12-04T18:51:10.702Z,90.80
2018-12-04T18:53:39.176Z,90.90
2018-12-04T18:56:07.549Z,90.70
2018-12-04T18:58:36.061Z,90.70
2018-12-04T19:01:04.440Z,90.90
2018-12-04T19:03:32.829Z,91.30
2018-12-04T19:06:01.197Z,91.10
2018-12-04T19:08:35.046Z,90.90
2018-12-04T19:11:03.910Z,90.90
2018-12-04T19:13:33.398Z,91.10
2018-12-04T19:16:01.870Z,91.10
2018-12-04T19:18:30.260Z,91.10
2018-12-04T19:21:00.061Z,91.30
2018-12-04T19:23:28.437Z,91.60
2018-12-04T19:25:56.906Z,91.40
2018-12-04T19:28:25.366Z,91.70
2018-12-04T19:30:53.748Z,92.00
2018-12-04T19:33:23.500Z,92.20
2018-12-04T19:35:51.888Z,92.30
2018-12-04T19:38:21.268Z,92.70
2018-12-04T19:40:50.213Z,93.20
2018-12-04T19:43:19.490Z,93.00
2018-12-04T19:45:49.062Z,92.90
2018-12-04T19:48:17.442Z,92.80
2018-12-04T19:50:45.840Z,93.00
2018-12-04T19:53:14.369Z,92.90
2018-12-04T19:55:42.742Z,92.50
2018-12-04T19:58:11.215Z,92.40
2018-12-04T20:00:39.841Z,92.50
2018-12-04T20:03:08.211Z,92.70
2018-12-04T20:05:36.580Z,92.40
2018-12-04T20:08:05.682Z,92.10
2018-12-04T20:10:34.854Z,92.00
2018-12-04T20:13:03.209Z,92.30
2018-12-04T20:15:31.573Z,92.30
2018-12-04T20:18:00.312Z,92.00
2018-12-04T20:20:29.538Z,91.80
2018-12-04T20:22:57.901Z,91.90
2018-12-04T20:25:26.286Z,92.10
2018-12-04T20:27:54.797Z,92.00
2018-12-04T20:30:23.162Z,91.60
2018-12-04T20:32:59.672Z,91.60
2018-12-04T20:35:24.115Z,91.70
2018-12-04T20:37:52.506Z,92.00
2018-12-04T20:40:21.846Z,91.80
2018-12-04T20:42:51.252Z,91.80
2018-12-04T20:45:20.477Z,91.40
2018-12-04T20:47:48.877Z,91.60
2018-12-04T20:50:17.273Z,91.80
2018-12-04T20:52:45.787Z,91.40
2018-12-04T20:55:14.166Z,91.30
2018-12-04T20:57:42.705Z,91.30
2018-12-04T21:00:12.506Z,91.50
2018-12-04T21:02:41.011Z,91.60
2018-12-04T21:05:09.360Z,91.20
2018-12-04T21:07:38.934Z,91.20
2018-12-04T21:10:07.446Z,91.30
2018-12-04T21:12:35.857Z,91.60
2018-12-04T21:15:04.627Z,91.40
2018-12-04T21:17:32.990Z,91.10
2018-12-04T21:20:01.803Z,91.00
2018-12-04T21:22:30.168Z,91.20
2018-12-04T21:24:58.565Z,91.50
2018-12-04T21:27:35.161Z,91.20
2018-12-04T21:30:08.780Z,91.00
2018-12-04T21:32:43.080Z,91.00
2018-12-04T21:35:17.728Z,91.30
2018-12-04T21:37:51.369Z,91.60
2018-12-04T21:40:26.447Z,91.80
2018-12-04T21:43:01.354Z,91.70
2018-12-04T21:45:35.640Z,91.40
2018-12-04T21:48:06.930Z,91.50
2018-12-04T21:50:35.421Z,91.60
2018-12-04T21:53:03.801Z,91.80
2018-12-04T21:55:32.303Z,91.70
2018-12-04T21:58:00.657Z,91.80
2018-12-04T22:00:29.155Z,91.80
2018-12-04T22:02:57.520Z,91.90
2018-12-04T22:05:26.720Z,92.00
2018-12-04T22:07:55.091Z,92.10
2018-12-04T22:10:23.613Z,92.30
2018-12-04T22:12:52.861Z,92.40
2018-12-04T22:15:21.222Z,92.50
2018-12-04T22:17:49.800Z,92.50
2018-12-04T22:20:18.639Z,92.60
2018-12-04T22:22:47.969Z,92.70
2018-12-04T22:25:16.430Z,92.90
2018-12-04T22:27:44.814Z,93.00
2018-12-04T22:30:13.781Z,93.20
2018-12-04T22:32:42.138Z,93.30
2018-12-04T22:35:11.994Z,93.30
2018-12-04T22:37:40.409Z,93.40
2018-12-04T22:40:09.653Z,93.60
2018-12-04T22:42:38.466Z,93.70
2018-12-04T22:45:14.405Z,93.80
2018-12-04T22:47:42.783Z,93.80
2018-12-04T22:50:11.141Z,93.70
2018-12-04T22:52:39.566Z,93.60
2018-12-04T22:55:07.994Z,93.60
2018-12-04T22:57:36.491Z,93.50
2018-12-04T23:00:06.218Z,93.60
2018-12-04T23:02:34.599Z,93.60
2018-12-04T23:05:02.970Z,93.60
2018-12-04T23:07:31.839Z,93.70
2018-12-04T23:10:00.226Z,93.80
2018-12-04T23:12:28.626Z,93.80
2018-12-04T23:14:57.047Z,93.80
2018-12-04T23:17:26.157Z,93.90
2018-12-04T23:19:55.845Z,93.90
2018-12-04T23:22:24.264Z,94.00
2018-12-04T23:24:52.710Z,94.00
2018-12-04T23:27:21.131Z,94.40
2018-12-04T23:29:49.934Z,93.90
2018-12-04T23:32:19.141Z,93.60
2018-12-04T23:34:47.842Z,93.60
2018-12-04T23:37:21.977Z,93.70
2018-12-04T23:39:50.962Z,93.80
2018-12-04T23:42:19.911Z,94.10
2018-12-04T23:44:48.871Z,94.20
2018-12-04T23:47:18.399Z,94.20
2018-12-04T23:49:46.881Z,94.10
2018-12-04T23:52:15.421Z,94.10
2018-12-04T23:54:43.832Z,94.10
2018-12-04T23:57:13.655Z,94.00
